METAR Data
IDs: Format: Raw Decoded Include TAF

Data at: 0318 UTC 25 Feb 2021

LHBP 250300Z 00000KT 2600 BCFG BR FEW006 M00/M02 Q1034 NOSIG